• Join FlightAware (Why Join?)
  • Login
  • US Flag 
01:04PM EDT


 

Airport Tracker/Info


-or-


 

Live Flight TrackerFlight Track Log ✈ SWA2001 ✈ 30-Jul-2013 ✈ KPHX - KABQ

Flight Track Log - Related Links

Times and Time Zones

All times are in EDT time to prevent confusion due to time zone crossing. See the SWA2001 flight status page for this flight to view local times or setup timezone preferences in your user account.

Time Position Orientation Groundspeed Altitude Reporting Facility
EDT Latitude Longitude Course Direction KTS MPH feet Rate Location/Type
01:05AM 33.4333 -112.1333 270° West 203 234 6,500  Level Phoenix TRACON
01:06AM 33.4667 -112.1667 320° Northwest 219 252 9,500 2,640 Climbing Phoenix TRACON
01:07AM 33.4969 -112.1058 59° Northeast 259 298 11,300 2,400 Climbing Albuquerque Center
01:08AM 33.5200 -112.0028 75° East 322 371 14,400 3,180 Climbing Albuquerque Center
01:09AM 33.5458 -111.8928 74° East 343 395 17,800 3,360 Climbing Albuquerque Center
01:10AM 33.5792 -111.7486 74° East 375 432 21,200 2,580 Climbing Albuquerque Center
01:11AM 33.6100 -111.6142 75° East 413 475 23,100 1,980 Climbing Albuquerque Center
01:12AM 33.6425 -111.4714 75° East 445 512 25,300 2,220 Climbing Albuquerque Center
01:13AM 33.6753 -111.3228 75° East 462 532 27,600 1,980 Climbing Albuquerque Center
01:14AM 33.7206 -111.1747 70° East 474 545 29,400 2,160 Climbing Albuquerque Center
01:15AM 33.7742 -111.0272 66° East 484 557 32,000 2,340 Climbing Albuquerque Center
01:16AM 33.8269 -110.8806 67° East 482 555 34,200 1,920 Climbing Albuquerque Center
01:17AM 33.8781 -110.7342 67° East 479 551 36,000 1,740 Climbing Albuquerque Center
01:18AM 33.9297 -110.5864 67° East 480 552 37,800 1,680 Climbing Albuquerque Center
01:19AM 33.9819 -110.4392 67° East 480 552 39,500 1,560 Climbing Albuquerque Center
01:20AM 34.0256 -110.2833 71° East 477 549 41,000 720 Climbing Albuquerque Center
01:21AM 34.0672 -110.1306 72° East 479 551 41,000  Level Albuquerque Center
01:22AM 34.1147 -109.9583 72° East 477 549 41,000  Level Albuquerque Center
01:23AM 34.1547 -109.8147 71° East 473 544 41,000  Level Albuquerque Center
01:24AM 34.1986 -109.6739 69° East 472 543 41,000  Level Albuquerque Center
01:25AM 34.2486 -109.5083 70° East 470 541 41,000  Level Albuquerque Center
01:26AM 34.2858 -109.3872 70° East 467 537 41,000  Level Albuquerque Center
01:27AM 34.3322 -109.2278 71° East 466 536 41,000  Level Albuquerque Center
01:28AM 34.3819 -109.0631 70° East 467 537 41,000  Level Albuquerque Center
01:29AM 34.4242 -108.9206 70° East 469 540 41,000  Level Albuquerque Center
01:30AM 34.4664 -108.7781 70° East 470 541 41,000  Level Albuquerque Center
01:31AM 34.5158 -108.6122 70° East 470 541 41,000 -780 Level Albuquerque Center
01:32AM 34.5558 -108.4736 71° East 467 537 39,500 -2,040 Descending Albuquerque Center
01:33AM 34.5981 -108.3317 70° East 464 534 36,900 -3,300 Descending Albuquerque Center
01:34AM 34.6461 -108.1625 71° East 471 542 32,900 -3,540 Descending Albuquerque Center
01:35AM 34.6867 -108.0211 71° East 482 555 29,800 -3,300 Descending Albuquerque Center
01:36AM 34.7297 -107.8697 71° East 479 551 26,200 -3,240 Descending Albuquerque Center
01:37AM 34.7722 -107.7219 71° East 469 540 23,300 -3,060 Descending Albuquerque Center
01:38AM 34.8164 -107.5683 71° East 434 499 20,100 -2,700 Descending Albuquerque Center
01:39AM 34.8489 -107.4500 71° East 423 487 17,900 -2,220 Descending Albuquerque Center
01:40AM 34.8842 -107.3278 71° East 385 443 15,700 -2,100 Descending Albuquerque Center
01:41AM 34.9125 -107.2153 73° East 353 406 13,700 -2,220 Descending Albuquerque Center
01:42AM 34.9442 -107.1072 70° East 341 392 11,300 -1,740 Descending Albuquerque Center
01:43AM 34.9731 -107.0031 71° East 328 377 10,200 -1,380 Descending Albuquerque Center
01:44AM 34.9989 -106.9094 71° East 300 345 8,600 -1,200 Descending Albuquerque Center
01:45AM 35.0272 -106.8061 71° East 274 315 7,900 -840 Descending Albuquerque Center
01:46AM 35.0458 -106.7306 73° East 239 275 7,000 -900 Descending Albuquerque Center
01:47AM 35.0444 -106.6683 92° East 186 214 6,100 -900 Descending Albuquerque Center
01:48AM 35.0442 -106.6178 90° East 153 176 5,300 -840 Descending Albuquerque Center
01:50AM 35.0402 -106.6092 90° East  Level Estimated